createdAt,value
2023-03-30T05:01:10.791Z,1
2023-03-30T05:06:26.750Z,2
2023-03-30T05:11:41.644Z,6
2023-03-30T05:16:58.792Z,10
2023-03-30T05:40:37.776Z,70
2023-03-30T05:45:46.428Z,119
2023-03-30T05:51:02.911Z,208
2023-03-30T05:56:17.625Z,308
2023-03-30T06:01:32.999Z,385
2023-03-30T06:06:51.704Z,610
2023-03-30T06:12:08.499Z,698
2023-03-30T06:17:26.331Z,631
2023-03-30T06:22:42.106Z,659
2023-03-30T06:27:57.805Z,599
2023-03-30T06:33:14.585Z,756
2023-03-30T06:38:30.592Z,754
2023-03-30T06:43:47.376Z,881
2023-03-30T06:49:05.480Z,797
2023-03-30T06:54:21.637Z,940
2023-03-30T06:59:38.447Z,2365
2023-03-30T07:04:53.357Z,5601
2023-03-30T07:10:08.830Z,4491
2023-03-30T07:15:27.566Z,2445
2023-03-30T07:20:43.078Z,1508
2023-03-30T07:25:59.961Z,1162
2023-03-30T07:36:34.122Z,1359
2023-03-30T07:41:50.929Z,935
2023-03-30T07:47:07.149Z,945
2023-03-30T07:52:22.581Z,315
2023-03-30T07:57:38.760Z,521
2023-03-30T08:02:55.258Z,1505
2023-03-30T08:08:10.414Z,1355
2023-03-30T08:13:26.615Z,1460
2023-03-30T08:18:44.660Z,2313
2023-03-30T08:23:59.559Z,1272
2023-03-30T08:29:15.771Z,1837
2023-03-30T08:34:31.895Z,1956
2023-03-30T08:39:47.404Z,1868
2023-03-30T08:45:03.713Z,1783
2023-03-30T08:50:21.006Z,1722
2023-03-30T08:55:51.238Z,1985
2023-03-30T09:01:12.644Z,2012
2023-03-30T09:06:26.751Z,3133
2023-03-30T09:11:42.263Z,3390
2023-03-30T09:16:58.751Z,2572
2023-03-30T09:22:13.340Z,2241
2023-03-30T09:27:31.400Z,2384
2023-03-30T09:32:49.021Z,2084
2023-03-30T09:38:05.641Z,2486
2023-03-30T09:43:20.505Z,1955
2023-03-30T09:48:38.636Z,1947
2023-03-30T09:53:55.372Z,2379
2023-03-30T09:59:12.821Z,2502
2023-03-30T10:20:14.595Z,1222
2023-03-30T10:26:14.577Z,1200
2023-03-30T10:32:04.073Z,494
2023-03-30T10:41:16.354Z,745
2023-03-30T10:46:45.559Z,1206
2023-03-30T10:52:00.828Z,1724
2023-03-30T10:57:15.996Z,2521
2023-03-30T11:02:31.001Z,3103
2023-03-30T11:07:46.102Z,3110
2023-03-30T11:13:10.033Z,2829
2023-03-30T11:18:26.525Z,2602
2023-03-30T11:23:43.650Z,2541
2023-03-30T11:29:00.168Z,2196
2023-03-30T11:34:41.732Z,3003
2023-03-30T11:39:50.610Z,2246
2023-03-30T11:45:07.396Z,3270
2023-03-30T11:51:12.161Z,1789
2023-03-30T11:56:56.662Z,1701
2023-03-30T11:58:18.410Z,1701
2023-03-30T12:03:28.271Z,2549
2023-03-30T12:08:48.201Z,2014
2023-03-30T12:14:03.694Z,2317
2023-03-30T12:19:19.865Z,2207
2023-03-30T12:24:36.069Z,999
2023-03-30T12:30:04.001Z,858
2023-03-30T12:35:10.920Z,2069
2023-03-30T12:41:38.130Z,892
2023-03-30T12:46:20.822Z,892
2023-03-30T12:51:28.813Z,1030
2023-03-30T12:56:45.780Z,1161
2023-03-30T13:02:48.643Z,2677
2023-03-30T13:08:15.694Z,2143
2023-03-30T13:13:33.079Z,1530
2023-03-30T13:39:46.135Z,1890
2023-03-30T13:41:12.269Z,1890
2023-03-30T13:46:22.911Z,2639
2023-03-30T13:51:36.500Z,1479
2023-03-30T13:57:22.384Z,1650
2023-03-30T14:02:38.964Z,1728
2023-03-30T14:07:55.886Z,1660
2023-03-30T14:13:11.199Z,2182
2023-03-30T14:18:26.094Z,2391
2023-03-30T14:23:42.301Z,2646
2023-03-30T14:28:58.451Z,2039
2023-03-30T14:34:18.435Z,1984
2023-03-30T14:41:41.933Z,2397
2023-03-30T14:44:33.242Z,2397
2023-03-30T14:49:42.578Z,1821
2023-03-30T14:55:26.931Z,1136
2023-03-30T15:00:49.679Z,991
2023-03-30T15:02:45.613Z,991
2023-03-30T15:07:51.897Z,448
2023-03-30T15:08:58.494Z,448
2023-03-30T15:14:05.618Z,391
2023-03-30T15:23:41.653Z,1324
2023-03-30T15:29:11.284Z,931
2023-03-30T15:35:06.423Z,933
2023-03-30T15:40:38.579Z,1242
2023-03-30T15:48:34.515Z,1242
2023-03-30T15:53:45.176Z,401
2023-03-30T15:59:47.430Z,211
2023-03-30T16:05:24.175Z,532
2023-03-30T16:06:50.206Z,532
2023-03-30T16:11:55.084Z,1426
2023-03-30T16:20:21.973Z,907
2023-03-30T16:26:05.470Z,700
2023-03-30T16:28:13.208Z,700
2023-03-30T16:33:09.443Z,587
2023-03-30T16:59:22.451Z,587
2023-03-30T17:04:17.481Z,183
2023-03-30T17:44:34.760Z,58
2023-03-30T17:45:58.109Z,58
2023-03-30T17:51:08.267Z,29
2023-03-30T17:56:26.442Z,18
2023-03-30T18:01:44.688Z,8
2023-03-30T18:07:00.644Z,8
2023-03-30T18:12:16.840Z,3
2023-03-30T18:17:33.120Z,2
2023-03-30T18:22:57.497Z,0
2023-03-30T18:28:17.481Z,0
2023-03-30T18:33:33.191Z,0
2023-03-30T18:39:16.668Z,0
2023-03-30T18:48:09.815Z,0
2023-03-30T19:05:46.425Z,0
2023-03-30T19:10:56.231Z,0
2023-03-30T19:16:06.707Z,0
2023-03-30T19:21:15.055Z,0
2023-03-30T19:26:23.592Z,0
2023-03-30T19:31:33.366Z,0
2023-03-30T19:36:43.710Z,0
2023-03-30T19:41:53.464Z,0
2023-03-30T19:47:03.219Z,0
2023-03-30T19:52:11.697Z,0
2023-03-30T19:57:21.042Z,0
2023-03-30T20:02:30.267Z,0
2023-03-30T20:07:40.364Z,0
2023-03-30T20:12:50.112Z,0
2023-03-30T20:17:59.063Z,0
2023-03-30T20:23:09.010Z,0
2023-03-30T20:28:17.484Z,0
2023-03-30T21:14:40.205Z,0
2023-03-30T21:19:49.323Z,0
2023-03-30T21:24:58.476Z,0
2023-03-30T21:30:06.945Z,0
2023-03-30T21:35:17.942Z,0
2023-03-30T21:40:27.690Z,0
2023-03-30T21:45:39.413Z,0
2023-03-30T21:50:49.147Z,0
2023-03-30T21:55:58.918Z,0
2023-03-30T22:01:13.325Z,0
2023-03-30T22:06:18.452Z,0
2023-03-30T22:11:28.198Z,0
2023-03-30T23:03:04.245Z,0
2023-03-30T23:08:11.691Z,0
2023-03-30T23:13:20.817Z,0
2023-03-30T23:18:30.592Z,0
2023-03-30T23:23:40.345Z,0
2023-03-30T23:28:49.474Z,0
2023-03-30T23:33:59.250Z,0
2023-03-30T23:39:07.698Z,0
2023-03-30T23:44:15.575Z,0
2023-03-30T23:49:24.012Z,0
2023-03-30T23:54:33.786Z,0
2023-03-30T23:59:42.907Z,0
